sensor_id;sensor_type;location;lat;lon;timestamp;P1;durP1;ratioP1;P2;durP2;ratioP2
19776;SDS011;10047;42.490;26.012;2023-05-10T00:01:28;11.07;;;7.07;;
19776;SDS011;10047;42.490;26.012;2023-05-10T00:03:54;8.45;;;6.25;;
19776;SDS011;10047;42.490;26.012;2023-05-10T00:06:20;10.77;;;7.03;;
19776;SDS011;10047;42.490;26.012;2023-05-10T00:08:45;8.77;;;6.45;;
19776;SDS011;10047;42.490;26.012;2023-05-10T00:11:10;9.70;;;6.95;;
19776;SDS011;10047;42.490;26.012;2023-05-10T00:13:36;11.88;;;6.65;;
19776;SDS011;10047;42.490;26.012;2023-05-10T00:16:01;11.25;;;6.88;;
19776;SDS011;10047;42.490;26.012;2023-05-10T00:18:27;9.82;;;6.65;;
19776;SDS011;10047;42.490;26.012;2023-05-10T00:20:52;9.23;;;6.22;;
19776;SDS011;10047;42.490;26.012;2023-05-10T00:23:17;9.45;;;7.22;;
19776;SDS011;10047;42.490;26.012;2023-05-10T00:25:43;10.18;;;6.82;;
19776;SDS011;10047;42.490;26.012;2023-05-10T00:28:08;10.13;;;6.90;;
19776;SDS011;10047;42.490;26.012;2023-05-10T00:30:34;9.77;;;6.88;;
19776;SDS011;10047;42.490;26.012;2023-05-10T00:32:59;10.98;;;6.25;;
19776;SDS011;10047;42.490;26.012;2023-05-10T00:35:25;8.80;;;6.43;;
19776;SDS011;10047;42.490;26.012;2023-05-10T00:37:51;10.27;;;6.63;;
19776;SDS011;10047;42.490;26.012;2023-05-10T00:40:16;9.52;;;6.47;;
19776;SDS011;10047;42.490;26.012;2023-05-10T00:42:41;8.38;;;6.68;;
19776;SDS011;10047;42.490;26.012;2023-05-10T00:45:07;9.60;;;6.35;;
19776;SDS011;10047;42.490;26.012;2023-05-10T00:47:33;7.07;;;5.90;;
19776;SDS011;10047;42.490;26.012;2023-05-10T00:49:59;8.95;;;6.57;;
19776;SDS011;10047;42.490;26.012;2023-05-10T00:52:26;8.82;;;6.38;;
19776;SDS011;10047;42.490;26.012;2023-05-10T00:54:54;8.50;;;5.78;;
19776;SDS011;10047;42.490;26.012;2023-05-10T00:57:20;7.43;;;5.72;;
19776;SDS011;10047;42.490;26.012;2023-05-10T00:59:46;7.75;;;5.78;;
19776;SDS011;10047;42.490;26.012;2023-05-10T01:02:12;8.82;;;5.70;;
19776;SDS011;10047;42.490;26.012;2023-05-10T01:04:38;8.07;;;6.30;;
19776;SDS011;10047;42.490;26.012;2023-05-10T01:07:04;7.68;;;6.30;;
19776;SDS011;10047;42.490;26.012;2023-05-10T01:09:30;11.77;;;6.50;;
19776;SDS011;10047;42.490;26.012;2023-05-10T01:11:56;10.15;;;7.00;;
19776;SDS011;10047;42.490;26.012;2023-05-10T01:14:22;11.63;;;7.20;;
19776;SDS011;10047;42.490;26.012;2023-05-10T01:16:48;13.10;;;7.45;;
19776;SDS011;10047;42.490;26.012;2023-05-10T01:19:19;10.13;;;7.60;;
19776;SDS011;10047;42.490;26.012;2023-05-10T01:22:00;9.38;;;6.88;;
19776;SDS011;10047;42.490;26.012;2023-05-10T01:33:11;10.82;;;6.95;;
19776;SDS011;10047;42.490;26.012;2023-05-10T01:35:51;9.32;;;6.97;;
19776;SDS011;10047;42.490;26.012;2023-05-10T01:41:22;10.10;;;6.85;;
19776;SDS011;10047;42.490;26.012;2023-05-10T01:44:11;10.55;;;6.80;;
19776;SDS011;10047;42.490;26.012;2023-05-10T01:47:43;11.27;;;6.60;;
19776;SDS011;10047;42.490;26.012;2023-05-10T01:50:10;9.73;;;7.40;;
19776;SDS011;10047;42.490;26.012;2023-05-10T01:52:45;10.43;;;6.85;;
19776;SDS011;10047;42.490;26.012;2023-05-10T01:55:15;8.18;;;6.55;;
19776;SDS011;10047;42.490;26.012;2023-05-10T01:57:51;11.15;;;6.70;;
19776;SDS011;10047;42.490;26.012;2023-05-10T02:00:29;9.70;;;6.65;;
19776;SDS011;10047;42.490;26.012;2023-05-10T02:02:56;9.48;;;6.78;;
19776;SDS011;10047;42.490;26.012;2023-05-10T02:05:22;11.18;;;6.95;;
19776;SDS011;10047;42.490;26.012;2023-05-10T02:07:50;11.23;;;7.28;;
19776;SDS011;10047;42.490;26.012;2023-05-10T02:10:16;10.70;;;7.45;;
19776;SDS011;10047;42.490;26.012;2023-05-10T02:12:43;9.98;;;7.20;;
19776;SDS011;10047;42.490;26.012;2023-05-10T02:15:11;12.15;;;7.70;;
19776;SDS011;10047;42.490;26.012;2023-05-10T02:17:39;9.05;;;7.10;;
19776;SDS011;10047;42.490;26.012;2023-05-10T02:20:07;11.80;;;7.20;;
19776;SDS011;10047;42.490;26.012;2023-05-10T02:22:35;9.60;;;7.35;;
19776;SDS011;10047;42.490;26.012;2023-05-10T02:25:03;10.13;;;7.72;;
19776;SDS011;10047;42.490;26.012;2023-05-10T02:27:29;10.15;;;7.10;;
19776;SDS011;10047;42.490;26.012;2023-05-10T02:29:55;9.93;;;7.35;;
19776;SDS011;10047;42.490;26.012;2023-05-10T02:32:22;11.23;;;7.72;;
19776;SDS011;10047;42.490;26.012;2023-05-10T02:34:51;8.57;;;7.43;;
19776;SDS011;10047;42.490;26.012;2023-05-10T02:37:18;8.63;;;7.25;;
19776;SDS011;10047;42.490;26.012;2023-05-10T02:39:48;11.50;;;7.22;;
19776;SDS011;10047;42.490;26.012;2023-05-10T02:42:16;8.88;;;7.32;;
19776;SDS011;10047;42.490;26.012;2023-05-10T02:44:45;10.45;;;7.72;;
19776;SDS011;10047;42.490;26.012;2023-05-10T02:47:14;12.88;;;8.25;;
19776;SDS011;10047;42.490;26.012;2023-05-10T02:49:40;9.55;;;7.57;;
19776;SDS011;10047;42.490;26.012;2023-05-10T02:52:06;10.95;;;7.93;;
19776;SDS011;10047;42.490;26.012;2023-05-10T02:54:39;9.52;;;7.78;;
19776;SDS011;10047;42.490;26.012;2023-05-10T02:57:08;13.40;;;7.45;;
19776;SDS011;10047;42.490;26.012;2023-05-10T02:59:38;11.65;;;7.93;;
19776;SDS011;10047;42.490;26.012;2023-05-10T03:02:03;10.68;;;7.75;;
19776;SDS011;10047;42.490;26.012;2023-05-10T03:04:29;9.65;;;7.97;;
19776;SDS011;10047;42.490;26.012;2023-05-10T03:06:55;13.00;;;8.00;;
19776;SDS011;10047;42.490;26.012;2023-05-10T03:09:20;10.55;;;7.53;;
19776;SDS011;10047;42.490;26.012;2023-05-10T03:11:54;16.02;;;8.25;;
19776;SDS011;10047;42.490;26.012;2023-05-10T03:15:29;10.98;;;8.35;;
19776;SDS011;10047;42.490;26.012;2023-05-10T03:17:53;10.90;;;7.97;;
19776;SDS011;10047;42.490;26.012;2023-05-10T03:20:24;8.77;;;7.72;;
19776;SDS011;10047;42.490;26.012;2023-05-10T03:23:02;10.38;;;7.70;;
19776;SDS011;10047;42.490;26.012;2023-05-10T03:25:33;10.95;;;7.57;;
19776;SDS011;10047;42.490;26.012;2023-05-10T03:27:59;11.57;;;8.30;;
19776;SDS011;10047;42.490;26.012;2023-05-10T03:30:27;11.50;;;8.38;;
19776;SDS011;10047;42.490;26.012;2023-05-10T03:32:53;9.02;;;7.50;;
19776;SDS011;10047;42.490;26.012;2023-05-10T03:35:19;12.57;;;7.78;;
19776;SDS011;10047;42.490;26.012;2023-05-10T03:37:44;9.88;;;8.00;;
19776;SDS011;10047;42.490;26.012;2023-05-10T03:40:10;12.00;;;7.97;;
19776;SDS011;10047;42.490;26.012;2023-05-10T03:42:35;10.60;;;8.10;;
19776;SDS011;10047;42.490;26.012;2023-05-10T03:45:01;10.55;;;8.15;;
19776;SDS011;10047;42.490;26.012;2023-05-10T03:47:27;19.73;;;11.20;;
19776;SDS011;10047;42.490;26.012;2023-05-10T03:49:54;19.77;;;12.10;;
19776;SDS011;10047;42.490;26.012;2023-05-10T03:52:20;19.17;;;11.10;;
19776;SDS011;10047;42.490;26.012;2023-05-10T03:54:45;13.88;;;10.18;;
19776;SDS011;10047;42.490;26.012;2023-05-10T03:57:10;13.43;;;9.77;;
19776;SDS011;10047;42.490;26.012;2023-05-10T03:59:36;11.52;;;9.32;;
19776;SDS011;10047;42.490;26.012;2023-05-10T04:02:01;14.43;;;9.60;;
19776;SDS011;10047;42.490;26.012;2023-05-10T04:04:26;12.65;;;8.30;;
19776;SDS011;10047;42.490;26.012;2023-05-10T04:06:52;10.32;;;7.65;;
19776;SDS011;10047;42.490;26.012;2023-05-10T04:09:17;10.30;;;6.35;;
19776;SDS011;10047;42.490;26.012;2023-05-10T04:11:43;11.60;;;6.75;;
19776;SDS011;10047;42.490;26.012;2023-05-10T04:14:08;6.57;;;5.82;;
19776;SDS011;10047;42.490;26.012;2023-05-10T04:16:34;10.65;;;6.47;;
19776;SDS011;10047;42.490;26.012;2023-05-10T04:18:59;10.93;;;6.80;;
19776;SDS011;10047;42.490;26.012;2023-05-10T04:21:25;7.68;;;6.30;;
19776;SDS011;10047;42.490;26.012;2023-05-10T04:23:51;11.68;;;6.32;;
19776;SDS011;10047;42.490;26.012;2023-05-10T04:26:17;9.38;;;6.00;;
19776;SDS011;10047;42.490;26.012;2023-05-10T04:28:42;9.25;;;5.55;;
19776;SDS011;10047;42.490;26.012;2023-05-10T04:31:08;9.75;;;5.75;;
19776;SDS011;10047;42.490;26.012;2023-05-10T04:33:35;8.27;;;6.25;;
19776;SDS011;10047;42.490;26.012;2023-05-10T04:36:01;8.15;;;6.18;;
19776;SDS011;10047;42.490;26.012;2023-05-10T04:38:27;8.88;;;6.63;;
19776;SDS011;10047;42.490;26.012;2023-05-10T04:40:53;11.13;;;6.47;;
19776;SDS011;10047;42.490;26.012;2023-05-10T04:43:19;12.63;;;6.68;;
19776;SDS011;10047;42.490;26.012;2023-05-10T04:45:45;11.23;;;6.65;;
19776;SDS011;10047;42.490;26.012;2023-05-10T04:48:10;11.20;;;7.05;;
19776;SDS011;10047;42.490;26.012;2023-05-10T04:50:36;8.82;;;6.10;;
19776;SDS011;10047;42.490;26.012;2023-05-10T04:53:01;10.07;;;5.80;;
19776;SDS011;10047;42.490;26.012;2023-05-10T04:55:27;8.70;;;5.82;;
19776;SDS011;10047;42.490;26.012;2023-05-10T04:57:52;7.72;;;5.32;;
19776;SDS011;10047;42.490;26.012;2023-05-10T05:00:20;7.75;;;5.53;;
19776;SDS011;10047;42.490;26.012;2023-05-10T05:02:45;7.15;;;5.63;;
19776;SDS011;10047;42.490;26.012;2023-05-10T05:05:11;7.07;;;5.93;;
19776;SDS011;10047;42.490;26.012;2023-05-10T05:07:39;8.80;;;4.97;;
19776;SDS011;10047;42.490;26.012;2023-05-10T05:10:05;7.22;;;5.85;;
19776;SDS011;10047;42.490;26.012;2023-05-10T05:12:32;7.35;;;5.70;;
19776;SDS011;10047;42.490;26.012;2023-05-10T05:14:57;15.50;;;9.00;;
19776;SDS011;10047;42.490;26.012;2023-05-10T05:17:22;8.73;;;5.65;;
19776;SDS011;10047;42.490;26.012;2023-05-10T05:19:48;7.65;;;6.13;;
19776;SDS011;10047;42.490;26.012;2023-05-10T05:22:13;7.35;;;5.22;;
19776;SDS011;10047;42.490;26.012;2023-05-10T05:24:39;7.45;;;5.38;;
19776;SDS011;10047;42.490;26.012;2023-05-10T05:27:04;8.00;;;5.30;;
19776;SDS011;10047;42.490;26.012;2023-05-10T05:29:30;8.25;;;5.28;;
19776;SDS011;10047;42.490;26.012;2023-05-10T05:31:56;8.00;;;5.40;;
19776;SDS011;10047;42.490;26.012;2023-05-10T05:34:21;12.18;;;5.10;;
19776;SDS011;10047;42.490;26.012;2023-05-10T05:36:47;9.18;;;5.47;;
19776;SDS011;10047;42.490;26.012;2023-05-10T05:39:13;7.05;;;5.20;;
19776;SDS011;10047;42.490;26.012;2023-05-10T05:41:38;7.35;;;4.25;;
19776;SDS011;10047;42.490;26.012;2023-05-10T05:44:04;6.32;;;4.75;;
19776;SDS011;10047;42.490;26.012;2023-05-10T05:46:29;5.47;;;4.50;;
19776;SDS011;10047;42.490;26.012;2023-05-10T05:48:55;6.13;;;4.57;;
19776;SDS011;10047;42.490;26.012;2023-05-10T05:51:21;6.15;;;4.93;;
19776;SDS011;10047;42.490;26.012;2023-05-10T05:53:47;7.13;;;5.10;;
19776;SDS011;10047;42.490;26.012;2023-05-10T05:56:12;9.10;;;5.53;;
19776;SDS011;10047;42.490;26.012;2023-05-10T05:58:38;10.80;;;5.53;;
19776;SDS011;10047;42.490;26.012;2023-05-10T06:01:04;6.38;;;5.53;;
19776;SDS011;10047;42.490;26.012;2023-05-10T06:03:29;5.80;;;4.88;;
19776;SDS011;10047;42.490;26.012;2023-05-10T06:05:54;6.97;;;5.00;;
19776;SDS011;10047;42.490;26.012;2023-05-10T06:08:20;7.75;;;4.60;;
19776;SDS011;10047;42.490;26.012;2023-05-10T06:10:45;9.63;;;5.63;;
19776;SDS011;10047;42.490;26.012;2023-05-10T06:13:11;8.10;;;4.80;;
19776;SDS011;10047;42.490;26.012;2023-05-10T06:15:37;10.20;;;5.53;;
19776;SDS011;10047;42.490;26.012;2023-05-10T06:18:02;6.78;;;4.72;;
19776;SDS011;10047;42.490;26.012;2023-05-10T06:20:28;11.95;;;6.70;;
19776;SDS011;10047;42.490;26.012;2023-05-10T06:22:53;12.85;;;7.18;;
19776;SDS011;10047;42.490;26.012;2023-05-10T06:25:19;7.20;;;4.57;;
19776;SDS011;10047;42.490;26.012;2023-05-10T06:27:44;6.32;;;3.88;;
19776;SDS011;10047;42.490;26.012;2023-05-10T06:30:10;6.93;;;3.92;;
19776;SDS011;10047;42.490;26.012;2023-05-10T06:32:38;6.25;;;3.40;;
19776;SDS011;10047;42.490;26.012;2023-05-10T06:35:03;7.93;;;3.97;;
19776;SDS011;10047;42.490;26.012;2023-05-10T06:37:29;6.72;;;3.90;;
19776;SDS011;10047;42.490;26.012;2023-05-10T06:39:55;10.02;;;5.40;;
19776;SDS011;10047;42.490;26.012;2023-05-10T06:42:20;5.15;;;3.25;;
19776;SDS011;10047;42.490;26.012;2023-05-10T06:44:50;6.10;;;2.70;;
19776;SDS011;10047;42.490;26.012;2023-05-10T06:47:15;3.28;;;2.47;;
19776;SDS011;10047;42.490;26.012;2023-05-10T06:49:41;10.07;;;4.38;;
19776;SDS011;10047;42.490;26.012;2023-05-10T06:52:06;6.43;;;3.15;;
19776;SDS011;10047;42.490;26.012;2023-05-10T06:54:32;8.73;;;3.25;;
19776;SDS011;10047;42.490;26.012;2023-05-10T06:56:58;7.22;;;3.83;;
19776;SDS011;10047;42.490;26.012;2023-05-10T06:59:23;8.60;;;3.13;;
19776;SDS011;10047;42.490;26.012;2023-05-10T07:01:49;3.65;;;2.50;;
19776;SDS011;10047;42.490;26.012;2023-05-10T07:04:14;4.68;;;2.70;;
19776;SDS011;10047;42.490;26.012;2023-05-10T07:06:39;5.45;;;3.35;;
19776;SDS011;10047;42.490;26.012;2023-05-10T07:09:05;5.88;;;3.20;;
19776;SDS011;10047;42.490;26.012;2023-05-10T07:11:30;5.25;;;2.80;;
19776;SDS011;10047;42.490;26.012;2023-05-10T07:13:56;5.07;;;2.80;;
19776;SDS011;10047;42.490;26.012;2023-05-10T07:16:23;5.53;;;2.53;;
19776;SDS011;10047;42.490;26.012;2023-05-10T07:18:49;5.82;;;3.67;;
19776;SDS011;10047;42.490;26.012;2023-05-10T07:21:15;6.90;;;3.22;;
19776;SDS011;10047;42.490;26.012;2023-05-10T07:23:41;5.43;;;3.00;;
19776;SDS011;10047;42.490;26.012;2023-05-10T07:26:06;11.57;;;5.43;;
19776;SDS011;10047;42.490;26.012;2023-05-10T07:28:34;9.55;;;4.85;;
19776;SDS011;10047;42.490;26.012;2023-05-10T07:31:01;6.32;;;4.00;;
19776;SDS011;10047;42.490;26.012;2023-05-10T07:33:27;4.15;;;2.60;;
19776;SDS011;10047;42.490;26.012;2023-05-10T07:35:52;4.35;;;2.50;;
19776;SDS011;10047;42.490;26.012;2023-05-10T07:38:20;5.85;;;3.20;;
19776;SDS011;10047;42.490;26.012;2023-05-10T07:40:46;5.13;;;3.30;;
19776;SDS011;10047;42.490;26.012;2023-05-10T07:43:11;5.68;;;3.28;;
19776;SDS011;10047;42.490;26.012;2023-05-10T07:45:36;5.93;;;3.03;;
19776;SDS011;10047;42.490;26.012;2023-05-10T07:48:02;6.43;;;2.70;;
19776;SDS011;10047;42.490;26.012;2023-05-10T07:50:28;5.45;;;2.20;;
19776;SDS011;10047;42.490;26.012;2023-05-10T07:52:53;4.40;;;2.47;;
19776;SDS011;10047;42.490;26.012;2023-05-10T07:55:19;3.72;;;2.03;;
19776;SDS011;10047;42.490;26.012;2023-05-10T07:57:46;3.28;;;2.20;;
19776;SDS011;10047;42.490;26.012;2023-05-10T08:00:12;5.30;;;2.63;;
19776;SDS011;10047;42.490;26.012;2023-05-10T08:02:38;5.38;;;2.60;;
19776;SDS011;10047;42.490;26.012;2023-05-10T08:05:04;3.65;;;2.58;;
19776;SDS011;10047;42.490;26.012;2023-05-10T08:07:30;4.65;;;2.70;;
19776;SDS011;10047;42.490;26.012;2023-05-10T08:09:56;7.30;;;2.72;;
19776;SDS011;10047;42.490;26.012;2023-05-10T08:12:21;7.97;;;2.90;;
19776;SDS011;10047;42.490;26.012;2023-05-10T08:14:47;4.95;;;3.70;;
19776;SDS011;10047;42.490;26.012;2023-05-10T08:17:12;6.50;;;3.60;;
19776;SDS011;10047;42.490;26.012;2023-05-10T08:19:37;7.10;;;3.47;;
19776;SDS011;10047;42.490;26.012;2023-05-10T08:24:32;7.18;;;4.32;;
19776;SDS011;10047;42.490;26.012;2023-05-10T08:26:59;7.45;;;3.38;;
19776;SDS011;10047;42.490;26.012;2023-05-10T08:29:25;4.47;;;3.10;;
19776;SDS011;10047;42.490;26.012;2023-05-10T08:31:51;4.20;;;2.60;;
19776;SDS011;10047;42.490;26.012;2023-05-10T08:34:16;5.22;;;3.20;;
19776;SDS011;10047;42.490;26.012;2023-05-10T08:36:42;5.30;;;3.05;;
19776;SDS011;10047;42.490;26.012;2023-05-10T08:39:07;4.70;;;3.05;;
19776;SDS011;10047;42.490;26.012;2023-05-10T08:41:33;5.03;;;3.00;;
19776;SDS011;10047;42.490;26.012;2023-05-10T08:44:00;7.03;;;3.55;;
19776;SDS011;10047;42.490;26.012;2023-05-10T08:46:29;5.50;;;3.00;;
19776;SDS011;10047;42.490;26.012;2023-05-10T08:48:56;5.22;;;2.80;;
19776;SDS011;10047;42.490;26.012;2023-05-10T08:51:26;4.28;;;3.08;;
19776;SDS011;10047;42.490;26.012;2023-05-10T08:53:55;5.88;;;3.28;;
19776;SDS011;10047;42.490;26.012;2023-05-10T08:56:21;4.30;;;2.90;;
19776;SDS011;10047;42.490;26.012;2023-05-10T08:58:48;6.05;;;2.95;;
19776;SDS011;10047;42.490;26.012;2023-05-10T09:01:14;4.00;;;3.00;;
19776;SDS011;10047;42.490;26.012;2023-05-10T09:03:41;4.22;;;3.28;;
19776;SDS011;10047;42.490;26.012;2023-05-10T09:06:07;5.47;;;3.35;;
19776;SDS011;10047;42.490;26.012;2023-05-10T09:08:33;9.48;;;3.83;;
19776;SDS011;10047;42.490;26.012;2023-05-10T09:11:01;5.30;;;2.90;;
19776;SDS011;10047;42.490;26.012;2023-05-10T09:13:27;4.75;;;3.10;;
19776;SDS011;10047;42.490;26.012;2023-05-10T09:15:53;3.97;;;2.67;;
19776;SDS011;10047;42.490;26.012;2023-05-10T09:18:19;6.00;;;3.05;;
19776;SDS011;10047;42.490;26.012;2023-05-10T09:20:44;2.85;;;2.25;;
19776;SDS011;10047;42.490;26.012;2023-05-10T09:23:10;5.40;;;2.60;;
19776;SDS011;10047;42.490;26.012;2023-05-10T09:25:35;4.35;;;2.80;;
19776;SDS011;10047;42.490;26.012;2023-05-10T09:28:05;4.28;;;2.45;;
19776;SDS011;10047;42.490;26.012;2023-05-10T09:30:31;6.45;;;2.67;;
19776;SDS011;10047;42.490;26.012;2023-05-10T09:32:57;5.35;;;2.65;;
19776;SDS011;10047;42.490;26.012;2023-05-10T09:35:24;4.38;;;2.40;;
19776;SDS011;10047;42.490;26.012;2023-05-10T09:37:52;5.40;;;2.40;;
19776;SDS011;10047;42.490;26.012;2023-05-10T09:40:19;4.88;;;2.42;;
19776;SDS011;10047;42.490;26.012;2023-05-10T09:45:28;4.35;;;2.15;;
19776;SDS011;10047;42.490;26.012;2023-05-10T09:47:55;4.13;;;2.38;;
19776;SDS011;10047;42.490;26.012;2023-05-10T09:50:22;3.80;;;2.50;;
19776;SDS011;10047;42.490;26.012;2023-05-10T09:52:49;3.45;;;2.50;;
19776;SDS011;10047;42.490;26.012;2023-05-10T09:55:17;4.60;;;2.63;;
19776;SDS011;10047;42.490;26.012;2023-05-10T09:57:44;6.40;;;2.30;;
19776;SDS011;10047;42.490;26.012;2023-05-10T10:00:12;4.80;;;2.53;;
19776;SDS011;10047;42.490;26.012;2023-05-10T10:02:42;4.07;;;2.70;;
19776;SDS011;10047;42.490;26.012;2023-05-10T10:05:08;4.47;;;2.50;;
19776;SDS011;10047;42.490;26.012;2023-05-10T10:07:34;3.38;;;2.50;;
19776;SDS011;10047;42.490;26.012;2023-05-10T10:10:00;5.65;;;2.30;;
19776;SDS011;10047;42.490;26.012;2023-05-10T10:12:25;3.35;;;2.55;;
19776;SDS011;10047;42.490;26.012;2023-05-10T10:14:51;3.33;;;2.42;;
19776;SDS011;10047;42.490;26.012;2023-05-10T10:17:18;3.67;;;2.30;;
19776;SDS011;10047;42.490;26.012;2023-05-10T10:19:44;3.20;;;2.50;;
19776;SDS011;10047;42.490;26.012;2023-05-10T10:22:10;3.20;;;2.20;;
19776;SDS011;10047;42.490;26.012;2023-05-10T10:24:38;3.85;;;2.15;;
19776;SDS011;10047;42.490;26.012;2023-05-10T10:27:20;3.00;;;2.13;;
19776;SDS011;10047;42.490;26.012;2023-05-10T10:29:50;2.67;;;2.10;;
19776;SDS011;10047;42.490;26.012;2023-05-10T10:32:49;2.95;;;2.47;;
19776;SDS011;10047;42.490;26.012;2023-05-10T10:35:14;4.68;;;2.30;;
19776;SDS011;10047;42.490;26.012;2023-05-10T10:37:41;4.82;;;2.60;;
19776;SDS011;10047;42.490;26.012;2023-05-10T10:40:25;4.00;;;2.35;;
19776;SDS011;10047;42.490;26.012;2023-05-10T10:42:51;2.60;;;2.20;;
19776;SDS011;10047;42.490;26.012;2023-05-10T10:45:16;3.63;;;2.50;;
19776;SDS011;10047;42.490;26.012;2023-05-10T10:47:42;3.47;;;2.55;;
19776;SDS011;10047;42.490;26.012;2023-05-10T10:50:10;4.35;;;2.70;;
19776;SDS011;10047;42.490;26.012;2023-05-10T10:52:40;4.22;;;2.55;;
19776;SDS011;10047;42.490;26.012;2023-05-10T10:55:10;4.07;;;2.42;;
19776;SDS011;10047;42.490;26.012;2023-05-10T11:02:50;5.82;;;2.70;;
19776;SDS011;10047;42.490;26.012;2023-05-10T11:07:53;4.75;;;3.13;;
19776;SDS011;10047;42.490;26.012;2023-05-10T11:10:21;4.15;;;2.90;;
19776;SDS011;10047;42.490;26.012;2023-05-10T11:13:26;4.60;;;2.92;;
19776;SDS011;10047;42.490;26.012;2023-05-10T11:15:39;12.85;;;6.03;;
19776;SDS011;10047;42.490;26.012;2023-05-10T11:20:52;5.47;;;3.53;;
19776;SDS011;10047;42.490;26.012;2023-05-10T11:23:30;3.03;;;2.65;;
19776;SDS011;10047;42.490;26.012;2023-05-10T11:25:59;4.25;;;3.20;;
19776;SDS011;10047;42.490;26.012;2023-05-10T11:28:26;7.18;;;3.45;;
19776;SDS011;10047;42.490;26.012;2023-05-10T11:30:53;4.93;;;2.70;;
19776;SDS011;10047;42.490;26.012;2023-05-10T11:33:19;10.20;;;5.80;;
19776;SDS011;10047;42.490;26.012;2023-05-10T11:35:45;9.93;;;4.82;;
19776;SDS011;10047;42.490;26.012;2023-05-10T11:38:11;7.38;;;4.03;;
19776;SDS011;10047;42.490;26.012;2023-05-10T11:40:38;3.80;;;2.80;;
19776;SDS011;10047;42.490;26.012;2023-05-10T11:43:04;4.22;;;2.50;;
19776;SDS011;10047;42.490;26.012;2023-05-10T11:45:33;4.25;;;2.50;;
19776;SDS011;10047;42.490;26.012;2023-05-10T11:47:59;4.82;;;2.60;;
19776;SDS011;10047;42.490;26.012;2023-05-10T11:50:25;5.25;;;2.65;;
19776;SDS011;10047;42.490;26.012;2023-05-10T11:52:55;2.88;;;2.20;;
19776;SDS011;10047;42.490;26.012;2023-05-10T11:55:21;3.30;;;2.40;;
19776;SDS011;10047;42.490;26.012;2023-05-10T11:57:48;3.10;;;2.15;;
19776;SDS011;10047;42.490;26.012;2023-05-10T12:00:16;2.38;;;2.15;;
19776;SDS011;10047;42.490;26.012;2023-05-10T12:02:42;3.75;;;2.90;;
19776;SDS011;10047;42.490;26.012;2023-05-10T12:05:08;6.88;;;4.40;;
19776;SDS011;10047;42.490;26.012;2023-05-10T12:07:34;6.03;;;3.72;;
19776;SDS011;10047;42.490;26.012;2023-05-10T12:10:09;7.65;;;4.28;;
19776;SDS011;10047;42.490;26.012;2023-05-10T12:12:39;3.58;;;3.00;;
19776;SDS011;10047;42.490;26.012;2023-05-10T12:15:19;3.70;;;3.10;;
19776;SDS011;10047;42.490;26.012;2023-05-10T12:17:49;3.53;;;2.60;;
19776;SDS011;10047;42.490;26.012;2023-05-10T12:22:46;3.50;;;2.40;;
19776;SDS011;10047;42.490;26.012;2023-05-10T12:25:16;5.25;;;2.88;;
19776;SDS011;10047;42.490;26.012;2023-05-10T12:27:51;4.47;;;2.95;;
19776;SDS011;10047;42.490;26.012;2023-05-10T12:30:22;4.05;;;2.70;;
19776;SDS011;10047;42.490;26.012;2023-05-10T12:32:49;3.15;;;2.75;;
19776;SDS011;10047;42.490;26.012;2023-05-10T12:35:14;8.07;;;2.97;;
19776;SDS011;10047;42.490;26.012;2023-05-10T12:37:41;4.72;;;2.67;;
19776;SDS011;10047;42.490;26.012;2023-05-10T12:40:10;4.32;;;3.03;;
19776;SDS011;10047;42.490;26.012;2023-05-10T12:42:36;5.20;;;2.92;;
19776;SDS011;10047;42.490;26.012;2023-05-10T12:45:03;5.95;;;3.00;;
19776;SDS011;10047;42.490;26.012;2023-05-10T12:47:30;3.47;;;2.85;;
19776;SDS011;10047;42.490;26.012;2023-05-10T12:50:00;4.70;;;2.88;;
19776;SDS011;10047;42.490;26.012;2023-05-10T12:52:26;4.05;;;2.83;;
19776;SDS011;10047;42.490;26.012;2023-05-10T12:54:52;5.45;;;2.60;;
19776;SDS011;10047;42.490;26.012;2023-05-10T12:57:18;5.55;;;3.15;;
19776;SDS011;10047;42.490;26.012;2023-05-10T12:59:45;5.60;;;3.00;;
19776;SDS011;10047;42.490;26.012;2023-05-10T13:02:10;4.47;;;2.72;;
19776;SDS011;10047;42.490;26.012;2023-05-10T13:04:35;4.18;;;2.65;;
19776;SDS011;10047;42.490;26.012;2023-05-10T13:07:04;4.30;;;2.92;;
19776;SDS011;10047;42.490;26.012;2023-05-10T13:09:32;2.80;;;2.58;;
19776;SDS011;10047;42.490;26.012;2023-05-10T13:11:58;2.92;;;2.45;;
19776;SDS011;10047;42.490;26.012;2023-05-10T13:14:23;3.28;;;2.53;;
19776;SDS011;10047;42.490;26.012;2023-05-10T13:16:50;4.20;;;2.55;;
19776;SDS011;10047;42.490;26.012;2023-05-10T13:19:16;3.90;;;2.13;;
19776;SDS011;10047;42.490;26.012;2023-05-10T13:21:42;3.78;;;2.78;;
19776;SDS011;10047;42.490;26.012;2023-05-10T13:24:09;3.03;;;2.67;;
19776;SDS011;10047;42.490;26.012;2023-05-10T13:26:35;3.35;;;2.70;;
19776;SDS011;10047;42.490;26.012;2023-05-10T13:29:01;4.53;;;2.47;;
19776;SDS011;10047;42.490;26.012;2023-05-10T13:31:27;4.07;;;2.70;;
19776;SDS011;10047;42.490;26.012;2023-05-10T13:33:53;3.85;;;2.60;;
19776;SDS011;10047;42.490;26.012;2023-05-10T13:36:18;3.22;;;2.90;;
19776;SDS011;10047;42.490;26.012;2023-05-10T13:38:44;5.95;;;2.90;;
19776;SDS011;10047;42.490;26.012;2023-05-10T13:41:09;3.42;;;2.63;;
19776;SDS011;10047;42.490;26.012;2023-05-10T13:43:35;3.17;;;2.70;;
19776;SDS011;10047;42.490;26.012;2023-05-10T13:46:01;3.00;;;2.20;;
19776;SDS011;10047;42.490;26.012;2023-05-10T13:48:27;4.80;;;2.70;;
19776;SDS011;10047;42.490;26.012;2023-05-10T13:50:53;3.72;;;2.60;;
19776;SDS011;10047;42.490;26.012;2023-05-10T13:53:18;6.63;;;2.70;;
19776;SDS011;10047;42.490;26.012;2023-05-10T13:58:59;3.83;;;2.92;;
19776;SDS011;10047;42.490;26.012;2023-05-10T14:01:25;4.78;;;2.78;;
19776;SDS011;10047;42.490;26.012;2023-05-10T14:03:50;4.88;;;2.90;;
19776;SDS011;10047;42.490;26.012;2023-05-10T14:06:16;5.75;;;3.30;;
19776;SDS011;10047;42.490;26.012;2023-05-10T14:08:42;4.68;;;3.03;;
19776;SDS011;10047;42.490;26.012;2023-05-10T14:11:07;4.82;;;3.03;;
19776;SDS011;10047;42.490;26.012;2023-05-10T14:13:33;3.63;;;3.33;;
19776;SDS011;10047;42.490;26.012;2023-05-10T14:15:58;4.35;;;3.17;;
19776;SDS011;10047;42.490;26.012;2023-05-10T14:18:25;6.15;;;3.20;;
19776;SDS011;10047;42.490;26.012;2023-05-10T14:20:51;4.28;;;2.78;;
19776;SDS011;10047;42.490;26.012;2023-05-10T14:23:17;3.25;;;2.83;;
19776;SDS011;10047;42.490;26.012;2023-05-10T14:25:44;6.55;;;3.03;;
19776;SDS011;10047;42.490;26.012;2023-05-10T14:28:10;4.20;;;2.75;;
19776;SDS011;10047;42.490;26.012;2023-05-10T14:30:36;6.57;;;2.83;;
19776;SDS011;10047;42.490;26.012;2023-05-10T14:33:02;3.50;;;2.80;;
19776;SDS011;10047;42.490;26.012;2023-05-10T14:35:28;4.85;;;2.63;;
19776;SDS011;10047;42.490;26.012;2023-05-10T14:37:56;4.72;;;2.97;;
19776;SDS011;10047;42.490;26.012;2023-05-10T14:40:21;6.20;;;2.80;;
19776;SDS011;10047;42.490;26.012;2023-05-10T14:42:47;3.30;;;2.78;;
19776;SDS011;10047;42.490;26.012;2023-05-10T14:45:15;4.28;;;2.40;;
19776;SDS011;10047;42.490;26.012;2023-05-10T14:47:40;4.95;;;2.92;;
19776;SDS011;10047;42.490;26.012;2023-05-10T14:50:06;4.20;;;3.75;;
19776;SDS011;10047;42.490;26.012;2023-05-10T14:55:53;7.32;;;3.35;;
19776;SDS011;10047;42.490;26.012;2023-05-10T14:58:20;10.25;;;6.97;;
19776;SDS011;10047;42.490;26.012;2023-05-10T15:00:45;15.48;;;8.10;;
19776;SDS011;10047;42.490;26.012;2023-05-10T15:03:11;37.33;;;20.55;;
19776;SDS011;10047;42.490;26.012;2023-05-10T15:05:37;35.35;;;18.48;;
19776;SDS011;10047;42.490;26.012;2023-05-10T15:08:03;20.60;;;11.50;;